createdAt,value
2023-02-27T00:03:00.038Z,25.2
2023-02-27T00:08:01.732Z,25.2
2023-02-27T00:13:03.390Z,25.3
2023-02-27T00:18:05.265Z,25.3
2023-02-27T00:23:07.151Z,25.3
2023-02-27T00:28:08.765Z,25.3
2023-02-27T00:33:10.413Z,25.3
2023-02-27T00:38:12.256Z,25.3
2023-02-27T00:43:13.864Z,25.3
2023-02-27T00:48:15.516Z,25.3
2023-02-27T00:53:17.425Z,25.4
2023-02-27T00:58:19.059Z,25.4
2023-02-27T01:03:20.754Z,25.4
2023-02-27T01:08:22.419Z,25.4
2023-02-27T01:13:24.086Z,25.4
2023-02-27T01:18:25.772Z,25.4
2023-02-27T01:23:27.420Z,25.4
2023-02-27T01:28:29.059Z,25.4
2023-02-27T01:33:30.694Z,25.5
2023-02-27T01:38:32.352Z,25.5
2023-02-27T01:43:34.038Z,25.5
2023-02-27T01:48:35.930Z,25.5
2023-02-27T01:53:37.554Z,25.6
2023-02-27T01:58:39.239Z,25.6
2023-02-27T02:03:40.911Z,25.6
2023-02-27T02:08:42.565Z,25.6
2023-02-27T02:13:44.230Z,25.6
2023-02-27T02:18:45.934Z,25.6
2023-02-27T02:23:47.808Z,25.6
2023-02-27T02:28:49.685Z,25.6
2023-02-27T02:33:51.352Z,25.6
2023-02-27T02:38:52.976Z,25.6
2023-02-27T02:43:54.616Z,25.6
2023-02-27T02:48:56.240Z,25.6
2023-02-27T02:53:57.830Z,25.7
2023-02-27T02:58:59.431Z,25.7
2023-02-27T03:04:01.057Z,25.7
2023-02-27T03:09:02.917Z,25.7
2023-02-27T03:14:04.548Z,25.7
2023-02-27T03:19:06.210Z,25.7
2023-02-27T03:24:07.854Z,25.8
2023-02-27T03:29:09.719Z,25.8
2023-02-27T03:34:11.399Z,25.8
2023-02-27T03:39:13.063Z,25.8
2023-02-27T03:44:14.707Z,25.8
2023-02-27T03:49:16.606Z,25.8
2023-02-27T03:54:18.279Z,25.8
2023-02-27T03:59:19.959Z,25.8
2023-02-27T04:04:21.896Z,25.8
2023-02-27T04:09:23.541Z,25.8
2023-02-27T04:14:25.168Z,25.8
2023-02-27T04:19:26.856Z,25.8
2023-02-27T04:24:28.500Z,25.8
2023-02-27T04:29:30.158Z,25.8
2023-02-27T04:34:31.828Z,25.8
2023-02-27T04:39:33.735Z,25.8
2023-02-27T04:44:35.373Z,25.8
2023-02-27T04:49:37.265Z,25.8
2023-02-27T04:54:38.904Z,25.8
2023-02-27T04:59:40.561Z,25.9
2023-02-27T05:04:42.465Z,25.9
2023-02-27T05:09:44.331Z,25.9
2023-02-27T05:14:46.107Z,25.9
2023-02-27T05:19:47.766Z,25.9
2023-02-27T05:24:49.391Z,25.9
2023-02-27T05:29:51.049Z,25.9
2023-02-27T05:34:52.675Z,25.8
2023-02-27T05:39:54.334Z,25.9
2023-02-27T05:44:55.957Z,25.9
2023-02-27T05:49:57.621Z,25.9
2023-02-27T05:54:59.280Z,25.9
2023-02-27T06:00:00.944Z,25.9
2023-02-27T06:05:02.862Z,25.9
2023-02-27T06:10:04.511Z,25.9
2023-02-27T06:15:06.362Z,25.9
2023-02-27T06:20:08.046Z,25.9
2023-02-27T06:25:09.912Z,25.9
2023-02-27T06:30:11.789Z,25.9
2023-02-27T06:35:13.485Z,25.9
2023-02-27T06:40:15.151Z,25.8
2023-02-27T06:45:17.002Z,25.4
2023-02-27T06:50:18.655Z,25.4
2023-02-27T06:55:20.360Z,25.4
2023-02-27T07:00:22.021Z,25.4
2023-02-27T07:05:23.701Z,25.4
2023-02-27T07:10:25.592Z,25.4
2023-02-27T07:15:27.190Z,25.4
2023-02-27T07:20:28.928Z,25.4
2023-02-27T07:25:30.609Z,25.4
2023-02-27T07:30:32.237Z,25.4
2023-02-27T07:35:33.914Z,25.4
2023-02-27T07:40:35.572Z,25.4
2023-02-27T07:45:37.223Z,25.4
2023-02-27T07:50:39.123Z,25.4
2023-02-27T07:55:40.754Z,25.4
2023-02-27T08:00:42.364Z,25.4
2023-02-27T08:05:44.055Z,25.4
2023-02-27T08:10:45.677Z,25.4
2023-02-27T08:15:47.534Z,25.4
2023-02-27T08:20:49.206Z,25.4
2023-02-27T08:25:50.837Z,25.4
2023-02-27T08:30:52.500Z,25.4
2023-02-27T08:35:54.161Z,25.4
2023-02-27T08:40:55.804Z,25.1
2023-02-27T08:45:57.787Z,25.1
2023-02-27T08:50:59.462Z,25.1
2023-02-27T08:56:01.124Z,25.1
2023-02-27T09:01:02.837Z,25.1
2023-02-27T09:06:04.591Z,25.1
2023-02-27T09:11:06.242Z,25.1
2023-02-27T09:16:08.156Z,25.1
2023-02-27T09:21:10.038Z,25.1
2023-02-27T09:26:11.657Z,25.1
2023-02-27T09:31:13.354Z,25.1
2023-02-27T09:36:15.025Z,25.1
2023-02-27T09:41:16.874Z,25.1
2023-02-27T09:46:18.656Z,25.1
2023-02-27T09:51:20.299Z,25.1
2023-02-27T09:56:21.940Z,25
2023-02-27T10:01:23.558Z,25
2023-02-27T10:06:25.690Z,25
2023-02-27T10:11:27.425Z,25
2023-02-27T10:16:29.484Z,25
2023-02-27T10:21:31.700Z,25.1
2023-02-27T10:26:33.564Z,25.1
2023-02-27T10:31:35.243Z,25.1
2023-02-27T10:36:36.881Z,25.1
2023-02-27T10:41:39.893Z,25.1
2023-02-27T10:46:41.755Z,25
2023-02-27T10:51:43.543Z,25
2023-02-27T10:56:45.136Z,25.1
2023-02-27T11:01:46.799Z,25
2023-02-27T11:06:48.498Z,25.1
2023-02-27T11:11:50.384Z,25
2023-02-27T11:16:52.249Z,25
2023-02-27T11:21:54.154Z,25
2023-02-27T11:26:55.805Z,25
2023-02-27T11:31:57.727Z,25
2023-02-27T11:36:59.374Z,25
2023-02-27T11:42:01.006Z,25
2023-02-27T11:47:02.798Z,25
2023-02-27T11:52:04.464Z,25
2023-02-27T11:57:06.336Z,24.9
2023-02-27T12:02:08.176Z,24.9
2023-02-27T12:07:09.782Z,24.8
2023-02-27T12:12:11.379Z,24.8
2023-02-27T12:17:13.394Z,24.9
2023-02-27T12:22:15.290Z,24.9
2023-02-27T12:27:17.185Z,24.9
2023-02-27T12:32:18.848Z,24.9
2023-02-27T12:37:20.463Z,24.9
2023-02-27T12:42:22.084Z,24.9
2023-02-27T12:47:23.947Z,24.9
2023-02-27T12:52:25.865Z,24.9
2023-02-27T12:57:27.510Z,24.9
2023-02-27T13:02:29.367Z,24.9
2023-02-27T13:07:31.028Z,24.9
2023-02-27T13:12:32.621Z,24.9
2023-02-27T13:17:34.251Z,24.9
2023-02-27T13:22:35.946Z,24.9
2023-02-27T13:27:38.646Z,24.9
2023-02-27T13:32:43.875Z,24.9
2023-02-27T13:37:45.770Z,24.9
2023-02-27T13:42:47.378Z,24.9
2023-02-27T13:47:48.997Z,24.9
2023-02-27T13:52:50.630Z,24.9
2023-02-27T13:57:52.217Z,24.9
2023-02-27T14:02:59.663Z,24.9
2023-02-27T14:08:02.191Z,24.9
2023-02-27T14:13:03.814Z,24.9
2023-02-27T14:18:15.859Z,24.9
2023-02-27T14:23:21.987Z,24.9
2023-02-27T14:28:23.840Z,24.9
2023-02-27T14:33:37.990Z,24.9
2023-02-27T14:38:41.611Z,25
2023-02-27T14:43:43.226Z,24.9
2023-02-27T14:48:45.050Z,24.9
2023-02-27T14:53:46.930Z,24.9
2023-02-27T14:58:52.402Z,24.9
2023-02-27T15:04:00.546Z,24.9
2023-02-27T15:09:02.260Z,25
2023-02-27T15:14:04.126Z,25
2023-02-27T15:19:05.779Z,25
2023-02-27T15:24:07.646Z,25
2023-02-27T15:29:09.625Z,25
2023-02-27T15:34:11.271Z,25
2023-02-27T15:39:12.962Z,25
2023-02-27T15:44:14.600Z,25
2023-02-27T15:49:16.191Z,25
2023-02-27T15:54:17.873Z,25
2023-02-27T15:59:19.723Z,25
2023-02-27T16:04:21.667Z,25
2023-02-27T16:09:23.565Z,25
2023-02-27T16:14:26.515Z,25
2023-02-27T16:19:28.219Z,25
2023-02-27T16:24:30.180Z,25
2023-02-27T16:29:31.896Z,25
2023-02-27T16:34:44.502Z,25
2023-02-27T16:39:46.233Z,27.4
2023-02-27T16:44:48.228Z,31.1
2023-02-27T16:49:50.261Z,33.9
2023-02-27T16:54:50.972Z,36.6
2023-02-27T16:59:51.550Z,39.4
2023-02-27T17:04:52.411Z,40.8
2023-02-27T17:09:53.136Z,41.7
2023-02-27T17:14:53.797Z,41.8
2023-02-27T17:19:54.502Z,42.2
2023-02-27T17:24:55.003Z,42.9
2023-02-27T17:29:55.708Z,43
2023-02-27T17:34:56.418Z,43
2023-02-27T17:39:57.144Z,42.9
2023-02-27T17:44:57.863Z,42.9
2023-02-27T17:49:58.610Z,42.9
2023-02-27T17:54:59.255Z,44.1
2023-02-27T18:00:00.089Z,44.6
2023-02-27T18:05:00.881Z,44.7
2023-02-27T18:10:01.407Z,44.7
2023-02-27T18:15:02.359Z,44.7
2023-02-27T18:20:03.147Z,44.6
2023-02-27T18:25:04.370Z,44.6
2023-02-27T18:30:05.134Z,44.6
2023-02-27T18:35:05.950Z,44.6
2023-02-27T18:40:06.716Z,44.5
2023-02-27T18:45:07.217Z,44.2
2023-02-27T18:50:08.023Z,44
2023-02-27T18:55:08.553Z,43.9
2023-02-27T19:00:09.290Z,43.9
2023-02-27T19:05:09.900Z,43.9
2023-02-27T19:10:10.678Z,43.9
2023-02-27T19:15:11.443Z,43.8
2023-02-27T19:20:12.039Z,43.7
2023-02-27T19:25:12.578Z,43.7
2023-02-27T19:30:13.331Z,43.7
2023-02-27T19:35:14.039Z,43.7
2023-02-27T19:40:14.895Z,43.6
2023-02-27T19:45:15.736Z,43.6
2023-02-27T19:50:16.545Z,43.6
2023-02-27T19:55:17.020Z,43.5
2023-02-27T20:00:17.792Z,43.5
2023-02-27T20:05:18.290Z,43.4
2023-02-27T20:10:19.060Z,43.4
2023-02-27T20:15:19.562Z,43.4
2023-02-27T20:20:20.066Z,43.3
2023-02-27T20:25:20.770Z,43.3
2023-02-27T20:30:21.255Z,43.3
2023-02-27T20:35:22.092Z,43.2
2023-02-27T20:40:22.826Z,43.1
2023-02-27T20:45:23.547Z,42.9
2023-02-27T20:50:24.248Z,42.8
2023-02-27T20:55:24.759Z,42.8
2023-02-27T21:00:25.566Z,42.7
2023-02-27T21:05:26.092Z,42.5
2023-02-27T21:10:26.695Z,42.2
2023-02-27T21:15:27.121Z,42.1
2023-02-27T21:20:27.561Z,41.9
2023-02-27T21:25:28.022Z,41.9
2023-02-27T21:30:28.436Z,41.8
2023-02-27T21:35:28.891Z,41.7
2023-02-27T21:40:29.542Z,41.7
2023-02-27T21:45:29.999Z,41.6
2023-02-27T21:50:30.419Z,41.6
2023-02-27T21:55:31.033Z,41.6
2023-02-27T22:00:31.734Z,41.5
2023-02-27T22:05:32.376Z,41.4
2023-02-27T22:10:32.980Z,41.4
2023-02-27T22:15:33.594Z,41.3
2023-02-27T22:20:34.287Z,41.2
2023-02-27T22:25:34.659Z,41.2
2023-02-27T22:30:34.999Z,41.1
2023-02-27T22:35:35.420Z,41.1
2023-02-27T22:40:36.096Z,41
2023-02-27T22:45:36.472Z,40.9
2023-02-27T22:50:37.101Z,40.9
2023-02-27T22:55:37.839Z,40.9
2023-02-27T23:00:38.521Z,40.8
2023-02-27T23:05:38.924Z,40.8
2023-02-27T23:10:39.332Z,40.7
2023-02-27T23:15:39.735Z,40.6
2023-02-27T23:20:40.177Z,40.6
2023-02-27T23:25:40.639Z,40.6
2023-02-27T23:30:41.268Z,40.5
2023-02-27T23:35:41.966Z,40.4
2023-02-27T23:40:42.455Z,40.4
2023-02-27T23:45:42.940Z,40.3
2023-02-27T23:50:43.368Z,40.2
2023-02-27T23:55:43.888Z,40.2
